PWSweather.com
Personal Weather Stations
Station Observations
AC5JC
Greenleaf Peninsula, Waco, Waco, TX 76710

Greenleaf Peninsula, WacoWaco, TX 76710

Lat: 31.565, Lon: -97.198

Elevation: 570

Station Type: Ambient WS-1400IP

http://ac5jc.dyndns.org

High Low Average
Temperature 86.6°F30.3°C 75.2°F24.0°C 79.4°F26.3°C
Dew Point 75.1°F23.9°C 65.8°F18.8°C 72.3°F22.4°C
Winds 8.9 mph 14.3 kmh Calm Calm 2.0 mph SE3.2 kmh SE
Wind Gusts 17.4 mph28.0 kmh -- 5.0 mph8.0 kmh
Humidity 95% 50% 80%
Pressure 29.31 in992.6 mb 29.21 in989.2 mb -
Precipitation 0.04 in1.0 mm - -
Hour Temp Dew Point Humidity Winds Wind Gusts Pressure Precip Precip Rate Daily Precip Total
12:00 AM 77.0°F25.0°C 73.8°F23.2°C 90% 3.1 mph SE5.0 kmh SE 7.4 mph11.9 kmh 29.30 in992.2 mb 0.00 in0.0 mm 0.00 in0.0 mm 0.00 in0.0 mm
12:05 AM 77.0°F25.0°C 73.8°F23.2°C 90% 2.4 mph SE3.9 kmh SE 4.9 mph7.9 kmh 29.30 in992.2 mb 0.00 in0.0 mm 0.00 in0.0 mm 0.00 in0.0 mm
12:10 AM 77.0°F25.0°C 73.8°F23.2°C 90% 0.7 mph SE1.1 kmh SE 2.5 mph4.0 kmh 29.30 in992.2 mb 0.00 in0.0 mm 0.00 in0.0 mm 0.00 in0.0 mm
12:15 AM 77.0°F25.0°C 73.8°F23.2°C 90% 0.8 mph SE1.3 kmh SE 2.5 mph4.0 kmh 29.31 in992.6 mb 0.00 in0.0 mm 0.00 in0.0 mm 0.00 in0.0 mm
12:20 AM 77.0°F25.0°C 73.8°F23.2°C 90% 2.4 mph E3.9 kmh E 4.9 mph7.9 kmh 29.31 in992.6 mb 0.00 in0.0 mm 0.00 in0.0 mm 0.00 in0.0 mm
12:25 AM 77.0°F25.0°C 73.8°F23.2°C 90% 3.8 mph SE6.1 kmh SE 7.4 mph11.9 kmh 29.30 in992.2 mb 0.00 in0.0 mm 0.00 in0.0 mm 0.00 in0.0 mm
12:30 AM 77.0°F25.0°C 73.8°F23.2°C 90% 3.6 mph SE5.8 kmh SE 7.4 mph11.9 kmh 29.31 in992.6 mb 0.00 in0.0 mm 0.00 in0.0 mm 0.00 in0.0 mm
12:35 AM 77.0°F25.0°C 73.8°F23.2°C 90% 3.0 mph SE4.8 kmh SE 7.4 mph11.9 kmh 29.31 in992.6 mb 0.00 in0.0 mm 0.00 in0.0 mm 0.00 in0.0 mm
12:40 AM 77.0°F25.0°C 73.8°F23.2°C 90% 3.7 mph SE6.0 kmh SE 7.4 mph11.9 kmh 29.31 in992.6 mb 0.00 in0.0 mm 0.00 in0.0 mm 0.00 in0.0 mm
12:45 AM 77.0°F25.0°C 73.8°F23.2°C 90% 3.1 mph E5.0 kmh E 4.9 mph7.9 kmh 29.31 in992.6 mb 0.00 in0.0 mm 0.00 in0.0 mm 0.00 in0.0 mm
12:50 AM 76.8°F24.9°C 73.6°F23.1°C 90% 2.7 mph ESE4.3 kmh ESE 7.4 mph11.9 kmh 29.30 in992.2 mb 0.00 in0.0 mm 0.00 in0.0 mm 0.00 in0.0 mm
12:55 AM 76.8°F24.9°C 73.4°F23.0°C 89% 2.5 mph SE4.0 kmh SE 7.4 mph11.9 kmh 29.31 in992.6 mb 0.00 in0.0 mm 0.00 in0.0 mm 0.00 in0.0 mm
01:00 AM 76.8°F24.9°C 73.3°F22.9°C 89% 3.5 mph SE5.6 kmh SE 7.4 mph11.9 kmh 29.31 in992.6 mb 0.00 in0.0 mm 0.00 in0.0 mm 0.00 in0.0 mm
01:05 AM 76.8°F24.9°C 73.4°F23.0°C 89% 2.9 mph SE4.7 kmh SE 4.9 mph7.9 kmh 29.31 in992.6 mb 0.00 in0.0 mm 0.00 in0.0 mm 0.00 in0.0 mm
01:10 AM 76.8°F24.9°C 73.8°F23.2°C 90% 3.5 mph ESE5.6 kmh ESE 7.4 mph11.9 kmh 29.30 in992.2 mb 0.00 in0.0 mm 0.00 in0.0 mm 0.00 in0.0 mm
01:15 AM 76.8°F24.9°C 74.0°F23.3°C 91% 3.8 mph SE6.1 kmh SE 7.4 mph11.9 kmh 29.30 in992.2 mb 0.00 in0.0 mm 0.00 in0.0 mm 0.00 in0.0 mm
01:20 AM 76.8°F24.9°C 74.0°F23.3°C 91% 3.3 mph ESE5.3 kmh ESE 9.8 mph15.8 kmh 29.30 in992.2 mb 0.00 in0.0 mm 0.00 in0.0 mm 0.00 in0.0 mm
01:25 AM 76.8°F24.9°C 74.0°F23.3°C 91% 3.4 mph SE5.5 kmh SE 4.9 mph7.9 kmh 29.30 in992.2 mb 0.00 in0.0 mm 0.00 in0.0 mm 0.00 in0.0 mm
01:30 AM 76.8°F24.9°C 73.8°F23.2°C 91% 6.2 mph ESE10.0 kmh ESE 12.3 mph19.8 kmh 29.30 in992.2 mb 0.00 in0.0 mm 0.00 in0.0 mm 0.00 in0.0 mm
01:35 AM 76.7°F24.8°C 73.5°F23.1°C 90% 5.2 mph E8.4 kmh E 12.3 mph19.8 kmh 29.29 in991.9 mb 0.00 in0.0 mm 0.00 in0.0 mm 0.00 in0.0 mm
01:40 AM 76.6°F24.8°C 73.4°F23.0°C 90% 3.5 mph ESE5.6 kmh ESE 4.9 mph7.9 kmh 29.29 in991.9 mb 0.00 in0.0 mm 0.00 in0.0 mm 0.00 in0.0 mm
01:45 AM 76.6°F24.8°C 73.4°F23.0°C 90% 7.4 mph E11.9 kmh E 12.3 mph19.8 kmh 29.29 in991.9 mb 0.00 in0.0 mm 0.00 in0.0 mm 0.00 in0.0 mm
01:50 AM 76.5°F24.7°C 73.5°F23.1°C 90% 4.6 mph ESE7.4 kmh ESE 12.3 mph19.8 kmh 29.29 in991.9 mb 0.00 in0.0 mm 0.00 in0.0 mm 0.00 in0.0 mm
01:55 AM 76.5°F24.7°C 73.7°F23.2°C 91% 3.0 mph ESE4.8 kmh ESE 7.4 mph11.9 kmh 29.28 in991.5 mb 0.00 in0.0 mm 0.00 in0.0 mm 0.00 in0.0 mm
02:00 AM 76.5°F24.7°C 73.7°F23.2°C 91% 2.6 mph SE4.2 kmh SE 7.4 mph11.9 kmh 29.28 in991.5 mb 0.00 in0.0 mm 0.00 in0.0 mm 0.00 in0.0 mm
02:05 AM 76.3°F24.6°C 73.5°F23.1°C 91% 3.3 mph ESE5.3 kmh ESE 9.8 mph15.8 kmh 29.28 in991.5 mb 0.00 in0.0 mm 0.00 in0.0 mm 0.00 in0.0 mm
02:10 AM 76.3°F24.6°C 73.4°F23.0°C 91% 4.8 mph E7.7 kmh E 9.8 mph15.8 kmh 29.28 in991.5 mb 0.00 in0.0 mm 0.00 in0.0 mm 0.00 in0.0 mm
02:15 AM 76.1°F24.5°C 73.3°F22.9°C 91% 2.9 mph E4.7 kmh E 7.4 mph11.9 kmh 29.28 in991.5 mb 0.00 in0.0 mm 0.00 in0.0 mm 0.00 in0.0 mm
02:20 AM 76.1°F24.5°C 73.3°F22.9°C 91% 2.4 mph SE3.9 kmh SE 4.9 mph7.9 kmh 29.28 in991.5 mb 0.00 in0.0 mm 0.00 in0.0 mm 0.00 in0.0 mm
02:25 AM 76.1°F24.5°C 73.3°F22.9°C 91% 5.3 mph ESE8.5 kmh ESE 9.8 mph15.8 kmh 29.28 in991.5 mb 0.00 in0.0 mm 0.00 in0.0 mm 0.00 in0.0 mm
02:30 AM 76.0°F24.4°C 73.2°F22.9°C 91% 1.8 mph ESE2.9 kmh ESE 4.9 mph7.9 kmh 29.28 in991.5 mb 0.00 in0.0 mm 0.00 in0.0 mm 0.00 in0.0 mm
02:35 AM 75.9°F24.4°C 73.1°F22.8°C 91% 1.9 mph SE3.1 kmh SE 4.9 mph7.9 kmh 29.28 in991.5 mb 0.00 in0.0 mm 0.00 in0.0 mm 0.00 in0.0 mm
02:40 AM 75.9°F24.4°C 73.1°F22.8°C 91% 1.7 mph SE2.7 kmh SE 7.4 mph11.9 kmh 29.27 in991.2 mb 0.00 in0.0 mm 0.00 in0.0 mm 0.00 in0.0 mm
02:45 AM 75.7°F24.3°C 72.9°F22.7°C 91% 3.2 mph SSE5.1 kmh SSE 7.4 mph11.9 kmh 29.27 in991.2 mb 0.00 in0.0 mm 0.00 in0.0 mm 0.00 in0.0 mm
02:50 AM 75.7°F24.3°C 72.9°F22.7°C 91% 2.8 mph SSE4.5 kmh SSE 4.9 mph7.9 kmh 29.27 in991.2 mb 0.00 in0.0 mm 0.00 in0.0 mm 0.00 in0.0 mm
02:55 AM 75.7°F24.3°C 73.2°F22.9°C 92% 0.6 mph S1.0 kmh S 2.5 mph4.0 kmh 29.26 in990.9 mb 0.00 in0.0 mm 0.00 in0.0 mm 0.00 in0.0 mm
03:00 AM 75.6°F24.2°C 73.1°F22.8°C 92% 1.2 mph SE1.9 kmh SE 2.5 mph4.0 kmh 29.26 in990.9 mb 0.00 in0.0 mm 0.00 in0.0 mm 0.00 in0.0 mm
03:05 AM 75.6°F24.2°C 73.1°F22.8°C 92% 0.8 mph SE1.3 kmh SE 2.5 mph4.0 kmh 29.26 in990.9 mb 0.00 in0.0 mm 0.00 in0.0 mm 0.00 in0.0 mm
03:10 AM 75.6°F24.2°C 73.1°F22.8°C 92% 1.5 mph ESE2.4 kmh ESE 4.9 mph7.9 kmh 29.26 in990.9 mb 0.00 in0.0 mm 0.00 in0.0 mm 0.00 in0.0 mm
03:15 AM 75.6°F24.2°C 73.1°F22.8°C 92% 2.0 mph E3.2 kmh E 4.9 mph7.9 kmh 29.26 in990.9 mb 0.00 in0.0 mm 0.00 in0.0 mm 0.00 in0.0 mm
03:20 AM 75.5°F24.2°C 73.0°F22.8°C 92% 1.6 mph E2.6 kmh E 7.4 mph11.9 kmh 29.26 in990.9 mb 0.00 in0.0 mm 0.00 in0.0 mm 0.00 in0.0 mm
03:25 AM 75.4°F24.1°C 72.9°F22.7°C 92% 1.5 mph SE2.4 kmh SE 2.5 mph4.0 kmh 29.26 in990.9 mb 0.00 in0.0 mm 0.00 in0.0 mm 0.00 in0.0 mm
03:30 AM 75.4°F24.1°C 72.9°F22.7°C 92% 2.8 mph E4.5 kmh E 7.4 mph11.9 kmh 29.25 in990.5 mb 0.00 in0.0 mm 0.00 in0.0 mm 0.00 in0.0 mm
03:35 AM 75.4°F24.1°C 72.9°F22.7°C 92% 2.5 mph S4.0 kmh S 4.9 mph7.9 kmh 29.25 in990.5 mb 0.00 in0.0 mm 0.00 in0.0 mm 0.00 in0.0 mm
03:40 AM 75.4°F24.1°C 72.9°F22.7°C 92% 0.8 mph E1.3 kmh E 4.9 mph7.9 kmh 29.25 in990.5 mb 0.00 in0.0 mm 0.00 in0.0 mm 0.00 in0.0 mm
03:45 AM 75.4°F24.1°C 72.9°F22.7°C 92% 3.8 mph E6.1 kmh E 15.0 mph24.1 kmh 29.25 in990.5 mb 0.00 in0.0 mm 0.00 in0.0 mm 0.00 in0.0 mm
03:50 AM 75.4°F24.1°C 72.9°F22.7°C 92% 6.1 mph E9.8 kmh E 9.8 mph15.8 kmh 29.24 in990.2 mb 0.00 in0.0 mm 0.00 in0.0 mm 0.00 in0.0 mm
03:55 AM 75.4°F24.1°C 73.0°F22.8°C 92% 1.8 mph SE2.9 kmh SE 4.9 mph7.9 kmh 29.25 in990.5 mb 0.00 in0.0 mm 0.00 in0.0 mm 0.00 in0.0 mm
04:00 AM 75.4°F24.1°C 73.2°F22.9°C 93% 2.1 mph SE3.4 kmh SE 7.4 mph11.9 kmh 29.24 in990.2 mb 0.00 in0.0 mm 0.00 in0.0 mm 0.00 in0.0 mm
04:05 AM 75.4°F24.1°C 73.2°F22.9°C 93% 3.7 mph SSE6.0 kmh SSE 4.9 mph7.9 kmh 29.25 in990.5 mb 0.00 in0.0 mm 0.00 in0.0 mm 0.00 in0.0 mm
04:10 AM 75.4°F24.1°C 73.2°F22.9°C 93% 1.8 mph SE2.9 kmh SE 4.9 mph7.9 kmh 29.24 in990.2 mb 0.00 in0.0 mm 0.00 in0.0 mm 0.00 in0.0 mm
04:15 AM 75.3°F24.1°C 73.1°F22.8°C 93% 1.6 mph ENE2.6 kmh ENE 4.9 mph7.9 kmh 29.25 in990.5 mb 0.00 in0.0 mm 0.00 in0.0 mm 0.00 in0.0 mm
04:20 AM 75.2°F24.0°C 73.0°F22.8°C 93% 1.4 mph SE2.3 kmh SE 7.4 mph11.9 kmh 29.25 in990.5 mb 0.00 in0.0 mm 0.00 in0.0 mm 0.00 in0.0 mm
04:25 AM 75.2°F24.0°C 73.0°F22.8°C 93% 2.4 mph ESE3.9 kmh ESE 7.4 mph11.9 kmh 29.24 in990.2 mb 0.00 in0.0 mm 0.00 in0.0 mm 0.00 in0.0 mm
04:30 AM 75.2°F24.0°C 73.0°F22.8°C 93% 1.7 mph E2.7 kmh E 4.9 mph7.9 kmh 29.25 in990.5 mb 0.00 in0.0 mm 0.00 in0.0 mm 0.00 in0.0 mm
04:35 AM 75.2°F24.0°C 73.0°F22.8°C 93% 1.6 mph E2.6 kmh E 4.9 mph7.9 kmh 29.25 in990.5 mb 0.00 in0.0 mm 0.00 in0.0 mm 0.00 in0.0 mm
04:40 AM 75.2°F24.0°C 73.0°F22.8°C 93% 0.5 mph ENE0.8 kmh ENE 2.5 mph4.0 kmh 29.25 in990.5 mb 0.00 in0.0 mm 0.00 in0.0 mm 0.00 in0.0 mm
04:45 AM 75.2°F24.0°C 73.2°F22.9°C 94% 1.7 mph E2.7 kmh E 4.9 mph7.9 kmh 29.25 in990.5 mb 0.00 in0.0 mm 0.00 in0.0 mm 0.00 in0.0 mm
04:50 AM 75.2°F24.0°C 73.1°F22.8°C 93% 0.3 mph E0.5 kmh E 2.5 mph4.0 kmh 29.26 in990.9 mb 0.00 in0.0 mm 0.00 in0.0 mm 0.00 in0.0 mm
04:55 AM 75.4°F24.1°C 73.2°F22.9°C 93% 0.7 mph E1.1 kmh E 2.5 mph4.0 kmh 29.25 in990.5 mb 0.00 in0.0 mm 0.00 in0.0 mm 0.00 in0.0 mm
05:00 AM 75.4°F24.1°C 73.2°F22.9°C 93% 0.3 mph E0.5 kmh E 2.5 mph4.0 kmh 29.25 in990.5 mb 0.00 in0.0 mm 0.00 in0.0 mm 0.00 in0.0 mm
05:05 AM 75.4°F24.1°C 73.2°F22.9°C 93% 0.5 mph E0.8 kmh E 2.5 mph4.0 kmh 29.26 in990.9 mb 0.00 in0.0 mm 0.00 in0.0 mm 0.00 in0.0 mm
05:10 AM 75.4°F24.1°C 73.2°F22.9°C 93% 1.3 mph E2.1 kmh E 4.9 mph7.9 kmh 29.26 in990.9 mb 0.00 in0.0 mm 0.00 in0.0 mm 0.00 in0.0 mm
05:15 AM 75.4°F24.1°C 73.3°F22.9°C 93% 1.9 mph SE3.1 kmh SE 7.4 mph11.9 kmh 29.26 in990.9 mb 0.00 in0.0 mm 0.00 in0.0 mm 0.00 in0.0 mm
05:20 AM 75.6°F24.2°C 73.4°F23.0°C 93% 3.0 mph ESE4.8 kmh ESE 4.9 mph7.9 kmh 29.26 in990.9 mb 0.00 in0.0 mm 0.00 in0.0 mm 0.00 in0.0 mm
05:25 AM 75.6°F24.2°C 73.4°F23.0°C 93% 2.2 mph E3.5 kmh E 4.9 mph7.9 kmh 29.26 in990.9 mb 0.00 in0.0 mm 0.00 in0.0 mm 0.00 in0.0 mm
05:30 AM 75.6°F24.2°C 73.4°F23.0°C 93% 2.6 mph E4.2 kmh E 7.4 mph11.9 kmh 29.25 in990.5 mb 0.00 in0.0 mm 0.00 in0.0 mm 0.00 in0.0 mm
05:35 AM 75.6°F24.2°C 73.4°F23.0°C 93% Calm Calm -- 29.25 in990.5 mb 0.00 in0.0 mm 0.00 in0.0 mm 0.00 in0.0 mm
05:40 AM 75.7°F24.3°C 73.5°F23.1°C 93% 2.4 mph ENE3.9 kmh ENE 4.9 mph7.9 kmh 29.25 in990.5 mb 0.00 in0.0 mm 0.00 in0.0 mm 0.00 in0.0 mm
05:45 AM 75.7°F24.3°C 73.5°F23.1°C 93% 0.7 mph E1.1 kmh E 2.5 mph4.0 kmh 29.25 in990.5 mb 0.00 in0.0 mm 0.00 in0.0 mm 0.00 in0.0 mm
05:50 AM 75.7°F24.3°C 73.5°F23.1°C 93% 0.8 mph SE1.3 kmh SE 4.9 mph7.9 kmh 29.25 in990.5 mb 0.00 in0.0 mm 0.00 in0.0 mm 0.00 in0.0 mm
05:55 AM 75.7°F24.3°C 73.5°F23.1°C 93% 3.0 mph E4.8 kmh E 4.9 mph7.9 kmh 29.26 in990.9 mb 0.00 in0.0 mm 0.00 in0.0 mm 0.00 in0.0 mm
06:00 AM 75.7°F24.3°C 73.5°F23.1°C 93% 0.2 mph E0.3 kmh E 2.5 mph4.0 kmh 29.25 in990.5 mb 0.00 in0.0 mm 0.00 in0.0 mm 0.00 in0.0 mm
06:05 AM 75.7°F24.3°C 73.5°F23.1°C 93% 1.6 mph E2.6 kmh E 4.9 mph7.9 kmh 29.26 in990.9 mb 0.00 in0.0 mm 0.00 in0.0 mm 0.00 in0.0 mm
06:10 AM 75.7°F24.3°C 73.5°F23.1°C 93% 0.3 mph E0.5 kmh E 2.5 mph4.0 kmh 29.26 in990.9 mb 0.00 in0.0 mm 0.00 in0.0 mm 0.00 in0.0 mm
06:15 AM 75.7°F24.3°C 73.5°F23.1°C 93% 0.6 mph SSE1.0 kmh SSE 2.5 mph4.0 kmh 29.26 in990.9 mb 0.00 in0.0 mm 0.00 in0.0 mm 0.00 in0.0 mm
06:20 AM 75.7°F24.3°C 73.5°F23.1°C 93% 3.0 mph E4.8 kmh E 4.9 mph7.9 kmh 29.26 in990.9 mb 0.00 in0.0 mm 0.00 in0.0 mm 0.00 in0.0 mm
06:25 AM 75.7°F24.3°C 73.5°F23.1°C 93% 2.1 mph ESE3.4 kmh ESE 4.9 mph7.9 kmh 29.26 in990.9 mb 0.00 in0.0 mm 0.00 in0.0 mm 0.00 in0.0 mm
06:30 AM 75.7°F24.3°C 73.5°F23.1°C 93% 0.2 mph SE0.3 kmh SE 2.5 mph4.0 kmh 29.26 in990.9 mb 0.00 in0.0 mm 0.00 in0.0 mm 0.00 in0.0 mm
06:35 AM 75.7°F24.3°C 73.5°F23.1°C 93% Calm Calm -- 29.26 in990.9 mb 0.00 in0.0 mm 0.00 in0.0 mm 0.00 in0.0 mm
06:40 AM 75.7°F24.3°C 73.5°F23.1°C 93% 0.9 mph E1.4 kmh E 4.9 mph7.9 kmh 29.26 in990.9 mb 0.00 in0.0 mm 0.00 in0.0 mm 0.00 in0.0 mm
06:45 AM 75.7°F24.3°C 73.5°F23.1°C 93% 1.3 mph SE2.1 kmh SE 4.9 mph7.9 kmh 29.26 in990.9 mb 0.00 in0.0 mm 0.00 in0.0 mm 0.00 in0.0 mm
06:50 AM 75.7°F24.3°C 73.5°F23.1°C 93% 2.1 mph ESE3.4 kmh ESE 4.9 mph7.9 kmh 29.26 in990.9 mb 0.01 in0.3 mm 0.12 in3.0 mm 0.01 in0.3 mm
06:55 AM 75.7°F24.3°C 73.5°F23.1°C 93% 0.2 mph S0.3 kmh S 2.5 mph4.0 kmh 29.27 in991.2 mb 0.01 in0.3 mm 0.00 in0.0 mm 0.01 in0.3 mm
07:00 AM 75.7°F24.3°C 73.8°F23.2°C 94% 1.8 mph E2.9 kmh E 2.5 mph4.0 kmh 29.27 in991.2 mb 0.01 in0.3 mm 0.00 in0.0 mm 0.01 in0.3 mm
07:05 AM 75.7°F24.3°C 73.8°F23.2°C 94% 0.4 mph S0.6 kmh S 2.5 mph4.0 kmh 29.27 in991.2 mb 0.02 in0.5 mm 0.12 in3.0 mm 0.02 in0.5 mm
07:10 AM 75.7°F24.3°C 73.8°F23.2°C 94% Calm Calm -- 29.28 in991.5 mb 0.02 in0.5 mm 0.00 in0.0 mm 0.02 in0.5 mm
07:15 AM 75.7°F24.3°C 73.8°F23.2°C 94% Calm Calm -- 29.28 in991.5 mb 0.02 in0.5 mm 0.00 in0.0 mm 0.02 in0.5 mm
07:20 AM 75.7°F24.3°C 73.8°F23.2°C 94% 0.4 mph ENE0.6 kmh ENE 2.5 mph4.0 kmh 29.28 in991.5 mb 0.02 in0.5 mm 0.00 in0.0 mm 0.02 in0.5 mm
07:25 AM 75.7°F24.3°C 74.1°F23.4°C 95% Calm Calm -- 29.28 in991.5 mb 0.02 in0.5 mm 0.00 in0.0 mm 0.02 in0.5 mm
07:30 AM 75.7°F24.3°C 74.2°F23.4°C 95% 0.7 mph ESE1.1 kmh ESE 2.5 mph4.0 kmh 29.28 in991.5 mb 0.02 in0.5 mm 0.00 in0.0 mm 0.02 in0.5 mm
07:35 AM 75.7°F24.3°C 74.2°F23.4°C 95% 0.9 mph E1.4 kmh E 2.5 mph4.0 kmh 29.27 in991.2 mb 0.02 in0.5 mm 0.00 in0.0 mm 0.02 in0.5 mm
07:40 AM 75.7°F24.3°C 74.2°F23.4°C 95% 0.2 mph SE0.3 kmh SE 2.5 mph4.0 kmh 29.28 in991.5 mb 0.02 in0.5 mm 0.00 in0.0 mm 0.02 in0.5 mm
07:45 AM 75.7°F24.3°C 74.2°F23.4°C 95% 0.1 mph ENE0.2 kmh ENE 2.5 mph4.0 kmh 29.28 in991.5 mb 0.02 in0.5 mm 0.00 in0.0 mm 0.02 in0.5 mm
07:50 AM 75.7°F24.3°C 74.2°F23.4°C 95% 1.0 mph ENE1.6 kmh ENE 2.5 mph4.0 kmh 29.28 in991.5 mb 0.01 in0.3 mm 0.00 in0.0 mm 0.02 in0.5 mm
07:55 AM 75.9°F24.4°C 74.3°F23.5°C 95% 0.6 mph E1.0 kmh E 2.5 mph4.0 kmh 29.29 in991.9 mb 0.01 in0.3 mm 0.00 in0.0 mm 0.02 in0.5 mm
08:00 AM 75.9°F24.4°C 74.4°F23.6°C 95% 0.6 mph SE1.0 kmh SE 2.5 mph4.0 kmh 29.28 in991.5 mb 0.01 in0.3 mm 0.00 in0.0 mm 0.02 in0.5 mm
08:05 AM 75.9°F24.4°C 74.4°F23.6°C 95% 0.8 mph E1.3 kmh E 4.9 mph7.9 kmh 29.29 in991.9 mb 0.00 in0.0 mm 0.00 in0.0 mm 0.02 in0.5 mm
08:10 AM 75.9°F24.4°C 74.4°F23.6°C 95% 1.1 mph E1.8 kmh E 2.5 mph4.0 kmh 29.29 in991.9 mb 0.00 in0.0 mm 0.00 in0.0 mm 0.02 in0.5 mm
08:15 AM 75.9°F24.4°C 74.4°F23.6°C 95% 1.2 mph E1.9 kmh E 4.9 mph7.9 kmh 29.28 in991.5 mb 0.00 in0.0 mm 0.00 in0.0 mm 0.02 in0.5 mm
08:20 AM 75.9°F24.4°C 74.4°F23.6°C 95% 1.2 mph E1.9 kmh E 4.9 mph7.9 kmh 29.29 in991.9 mb 0.00 in0.0 mm 0.00 in0.0 mm 0.02 in0.5 mm
08:25 AM 75.9°F24.4°C 74.4°F23.6°C 95% Calm Calm -- 29.29 in991.9 mb 0.00 in0.0 mm 0.00 in0.0 mm 0.02 in0.5 mm
08:30 AM 75.9°F24.4°C 74.4°F23.6°C 95% 0.1 mph S0.2 kmh S 2.5 mph4.0 kmh 29.29 in991.9 mb 0.00 in0.0 mm 0.00 in0.0 mm 0.02 in0.5 mm
08:35 AM 75.9°F24.4°C 74.4°F23.6°C 95% Calm Calm -- 29.29 in991.9 mb 0.00 in0.0 mm 0.00 in0.0 mm 0.02 in0.5 mm
08:40 AM 75.9°F24.4°C 74.4°F23.6°C 95% 0.6 mph E1.0 kmh E 2.5 mph4.0 kmh 29.30 in992.2 mb 0.00 in0.0 mm 0.00 in0.0 mm 0.02 in0.5 mm
08:45 AM 75.9°F24.4°C 74.4°F23.6°C 95% 0.3 mph E0.5 kmh E 2.5 mph4.0 kmh 29.30 in992.2 mb 0.00 in0.0 mm 0.00 in0.0 mm 0.02 in0.5 mm
08:50 AM 76.0°F24.4°C 74.4°F23.6°C 95% 2.0 mph S3.2 kmh S 4.9 mph7.9 kmh 29.30 in992.2 mb 0.00 in0.0 mm 0.00 in0.0 mm 0.02 in0.5 mm
08:55 AM 76.2°F24.6°C 74.3°F23.5°C 94% Calm Calm -- 29.31 in992.6 mb 0.00 in0.0 mm 0.00 in0.0 mm 0.02 in0.5 mm
09:00 AM 76.4°F24.7°C 74.5°F23.6°C 94% 0.9 mph E1.4 kmh E 4.9 mph7.9 kmh 29.30 in992.2 mb 0.00 in0.0 mm 0.00 in0.0 mm 0.02 in0.5 mm
09:05 AM 76.5°F24.7°C 74.7°F23.7°C 94% 0.1 mph SE0.2 kmh SE 2.5 mph4.0 kmh 29.31 in992.6 mb 0.00 in0.0 mm 0.00 in0.0 mm 0.02 in0.5 mm
09:10 AM 76.5°F24.7°C 74.6°F23.7°C 94% Calm Calm -- 29.31 in992.6 mb 0.00 in0.0 mm 0.00 in0.0 mm 0.02 in0.5 mm
09:15 AM 76.5°F24.7°C 74.6°F23.7°C 94% Calm Calm -- 29.31 in992.6 mb 0.00 in0.0 mm 0.00 in0.0 mm 0.02 in0.5 mm
09:20 AM 76.6°F24.8°C 74.1°F23.4°C 92% 0.7 mph SSE1.1 kmh SSE 2.5 mph4.0 kmh 29.31 in992.6 mb 0.00 in0.0 mm 0.00 in0.0 mm 0.02 in0.5 mm
09:25 AM 76.6°F24.8°C 74.0°F23.3°C 92% 0.3 mph SSE0.5 kmh SSE 2.5 mph4.0 kmh 29.31 in992.6 mb 0.00 in0.0 mm 0.00 in0.0 mm 0.02 in0.5 mm
09:30 AM 76.7°F24.8°C 73.7°F23.2°C 91% 1.0 mph ENE1.6 kmh ENE 4.9 mph7.9 kmh 29.31 in992.6 mb 0.00 in0.0 mm 0.00 in0.0 mm 0.02 in0.5 mm
09:35 AM 76.8°F24.9°C 72.5°F22.5°C 86% 0.5 mph E0.8 kmh E 2.5 mph4.0 kmh 29.31 in992.6 mb 0.00 in0.0 mm 0.00 in0.0 mm 0.02 in0.5 mm
09:40 AM 77.3°F25.2°C 71.0°F21.7°C 81% 0.3 mph N0.5 kmh N 2.5 mph4.0 kmh 29.31 in992.6 mb 0.00 in0.0 mm 0.00 in0.0 mm 0.02 in0.5 mm
09:45 AM 77.9°F25.5°C 69.2°F20.7°C 75% 0.4 mph NNW0.6 kmh NNW 2.5 mph4.0 kmh 29.31 in992.6 mb 0.00 in0.0 mm 0.00 in0.0 mm 0.02 in0.5 mm
09:50 AM 78.6°F25.9°C 69.2°F20.7°C 73% 0.1 mph ESE0.2 kmh ESE 2.5 mph4.0 kmh 29.31 in992.6 mb 0.00 in0.0 mm 0.00 in0.0 mm 0.02 in0.5 mm
09:55 AM 79.2°F26.2°C 69.9°F21.1°C 73% 0.1 mph E0.2 kmh E 2.5 mph4.0 kmh 29.31 in992.6 mb 0.00 in0.0 mm 0.00 in0.0 mm 0.02 in0.5 mm
10:00 AM 79.6°F26.4°C 70.5°F21.4°C 74% 1.5 mph ESE2.4 kmh ESE 2.5 mph4.0 kmh 29.31 in992.6 mb 0.00 in0.0 mm 0.00 in0.0 mm 0.02 in0.5 mm
10:05 AM 80.3°F26.8°C 70.4°F21.3°C 72% 0.8 mph ENE1.3 kmh ENE 2.5 mph4.0 kmh 29.30 in992.2 mb 0.00 in0.0 mm 0.00 in0.0 mm 0.02 in0.5 mm
10:10 AM 80.8°F27.1°C 70.1°F21.2°C 70% 0.3 mph ENE0.5 kmh ENE 2.5 mph4.0 kmh 29.30 in992.2 mb 0.00 in0.0 mm 0.00 in0.0 mm 0.02 in0.5 mm
10:15 AM 81.0°F27.2°C 69.8°F21.0°C 69% 0.4 mph E0.6 kmh E 2.5 mph4.0 kmh 29.30 in992.2 mb 0.00 in0.0 mm 0.00 in0.0 mm 0.02 in0.5 mm
10:20 AM 81.1°F27.3°C 71.1°F21.7°C 72% 1.1 mph ESE1.8 kmh ESE 2.5 mph4.0 kmh 29.31 in992.6 mb 0.00 in0.0 mm 0.00 in0.0 mm 0.02 in0.5 mm
10:25 AM 81.2°F27.3°C 71.3°F21.8°C 72% 0.1 mph S0.2 kmh S 2.5 mph4.0 kmh 29.31 in992.6 mb 0.00 in0.0 mm 0.00 in0.0 mm 0.02 in0.5 mm
10:30 AM 81.3°F27.4°C 71.5°F21.9°C 72% 1.5 mph ESE2.4 kmh ESE 4.9 mph7.9 kmh 29.30 in992.2 mb 0.00 in0.0 mm 0.00 in0.0 mm 0.02 in0.5 mm
10:35 AM 81.3°F27.4°C 71.3°F21.8°C 72% 0.1 mph SSE0.2 kmh SSE 2.5 mph4.0 kmh 29.31 in992.6 mb 0.00 in0.0 mm 0.00 in0.0 mm 0.02 in0.5 mm
10:40 AM 81.1°F27.3°C 71.8°F22.1°C 73% 1.9 mph E3.1 kmh E 4.9 mph7.9 kmh 29.30 in992.2 mb 0.00 in0.0 mm 0.00 in0.0 mm 0.02 in0.5 mm
10:45 AM 81.0°F27.2°C 72.0°F22.2°C 74% 0.1 mph E0.2 kmh E 2.5 mph4.0 kmh 29.31 in992.6 mb 0.00 in0.0 mm 0.00 in0.0 mm 0.02 in0.5 mm
10:50 AM 81.0°F27.2°C 71.4°F21.9°C 73% 0.3 mph S0.5 kmh S 2.5 mph4.0 kmh 29.31 in992.6 mb 0.00 in0.0 mm 0.00 in0.0 mm 0.02 in0.5 mm
10:55 AM 81.3°F27.4°C 70.0°F21.1°C 69% 0.3 mph S0.5 kmh S 2.5 mph4.0 kmh 29.31 in992.6 mb 0.00 in0.0 mm 0.00 in0.0 mm 0.02 in0.5 mm
11:00 AM 81.6°F27.6°C 70.8°F21.6°C 70% 0.6 mph NW1.0 kmh NW 2.5 mph4.0 kmh 29.30 in992.2 mb 0.00 in0.0 mm 0.00 in0.0 mm 0.02 in0.5 mm
11:05 AM 81.7°F27.6°C 71.6°F22.0°C 72% 1.5 mph SE2.4 kmh SE 7.4 mph11.9 kmh 29.30 in992.2 mb 0.00 in0.0 mm 0.00 in0.0 mm 0.02 in0.5 mm
11:10 AM 81.9°F27.7°C 71.4°F21.9°C 71% 1.3 mph ENE2.1 kmh ENE 2.5 mph4.0 kmh 29.30 in992.2 mb 0.00 in0.0 mm 0.00 in0.0 mm 0.02 in0.5 mm
11:15 AM 82.1°F27.8°C 71.2°F21.8°C 70% 5.3 mph SSE8.5 kmh SSE 9.8 mph15.8 kmh 29.30 in992.2 mb 0.00 in0.0 mm 0.00 in0.0 mm 0.02 in0.5 mm
11:20 AM 82.2°F27.9°C 71.3°F21.8°C 70% 4.4 mph SSE7.1 kmh SSE 7.4 mph11.9 kmh 29.30 in992.2 mb 0.00 in0.0 mm 0.00 in0.0 mm 0.02 in0.5 mm
11:25 AM 81.9°F27.7°C 70.8°F21.6°C 69% 5.7 mph S9.2 kmh S 9.8 mph15.8 kmh 29.29 in991.9 mb 0.00 in0.0 mm 0.00 in0.0 mm 0.02 in0.5 mm
11:30 AM 81.8°F27.7°C 70.6°F21.4°C 69% 1.9 mph S3.1 kmh S 4.9 mph7.9 kmh 29.30 in992.2 mb 0.00 in0.0 mm 0.00 in0.0 mm 0.02 in0.5 mm
11:35 AM 81.9°F27.7°C 70.7°F21.5°C 69% 3.2 mph S5.1 kmh S 7.4 mph11.9 kmh 29.30 in992.2 mb 0.00 in0.0 mm 0.00 in0.0 mm 0.02 in0.5 mm
11:40 AM 81.9°F27.7°C 70.6°F21.4°C 69% 3.0 mph SSE4.8 kmh SSE 7.4 mph11.9 kmh 29.30 in992.2 mb 0.00 in0.0 mm 0.00 in0.0 mm 0.02 in0.5 mm
11:45 AM 81.9°F27.7°C 71.1°F21.7°C 70% 3.4 mph ESE5.5 kmh ESE 7.4 mph11.9 kmh 29.30 in992.2 mb 0.00 in0.0 mm 0.00 in0.0 mm 0.02 in0.5 mm
11:50 AM 82.0°F27.8°C 71.0°F21.7°C 70% 1.5 mph SE2.4 kmh SE 2.5 mph4.0 kmh 29.30 in992.2 mb 0.00 in0.0 mm 0.00 in0.0 mm 0.02 in0.5 mm
11:55 AM 82.2°F27.9°C 70.6°F21.4°C 68% 0.8 mph S1.3 kmh S 2.5 mph4.0 kmh 29.30 in992.2 mb 0.00 in0.0 mm 0.00 in0.0 mm 0.02 in0.5 mm
12:00 PM 82.3°F27.9°C 70.1°F21.2°C 67% 1.6 mph SSE2.6 kmh SSE 4.9 mph7.9 kmh 29.30 in992.2 mb 0.00 in0.0 mm 0.00 in0.0 mm 0.02 in0.5 mm
12:05 PM 82.4°F28.0°C 70.5°F21.4°C 68% 2.5 mph SSE4.0 kmh SSE 4.9 mph7.9 kmh 29.29 in991.9 mb 0.00 in0.0 mm 0.00 in0.0 mm 0.02 in0.5 mm
12:10 PM 82.4°F28.0°C 70.3°F21.3°C 67% 2.5 mph S4.0 kmh S 4.9 mph7.9 kmh 29.30 in992.2 mb 0.00 in0.0 mm 0.00 in0.0 mm 0.02 in0.5 mm
12:15 PM 82.4°F28.0°C 70.3°F21.3°C 67% 1.0 mph S1.6 kmh S 4.9 mph7.9 kmh 29.29 in991.9 mb 0.00 in0.0 mm 0.00 in0.0 mm 0.02 in0.5 mm
12:20 PM 82.4°F28.0°C 72.0°F22.2°C 71% 0.7 mph S1.1 kmh S 4.9 mph7.9 kmh 29.30 in992.2 mb 0.00 in0.0 mm 0.00 in0.0 mm 0.02 in0.5 mm
12:25 PM 82.1°F27.8°C 73.5°F23.1°C 75% Calm Calm -- 29.30 in992.2 mb 0.00 in0.0 mm 0.00 in0.0 mm 0.02 in0.5 mm
12:30 PM 81.6°F27.6°C 74.5°F23.6°C 79% Calm Calm -- 29.30 in992.2 mb 0.02 in0.5 mm 0.24 in6.1 mm 0.04 in1.0 mm
12:35 PM 80.8°F27.1°C 74.9°F23.8°C 82% Calm Calm -- 29.29 in991.9 mb 0.02 in0.5 mm 0.00 in0.0 mm 0.04 in1.0 mm
12:40 PM 80.3°F26.8°C 75.1°F23.9°C 84% Calm Calm -- 29.29 in991.9 mb 0.02 in0.5 mm 0.00 in0.0 mm 0.04 in1.0 mm
12:45 PM 79.6°F26.4°C 75.0°F23.9°C 86% Calm Calm -- 29.30 in992.2 mb 0.02 in0.5 mm 0.00 in0.0 mm 0.04 in1.0 mm
12:50 PM 78.7°F25.9°C 74.5°F23.6°C 87% Calm Calm -- 29.29 in991.9 mb 0.02 in0.5 mm 0.00 in0.0 mm 0.04 in1.0 mm
12:55 PM 78.2°F25.7°C 74.4°F23.6°C 88% Calm Calm -- 29.29 in991.9 mb 0.02 in0.5 mm 0.00 in0.0 mm 0.04 in1.0 mm
01:00 PM 78.0°F25.6°C 74.3°F23.5°C 88% Calm Calm -- 29.29 in991.9 mb 0.02 in0.5 mm 0.00 in0.0 mm 0.04 in1.0 mm
01:05 PM 78.0°F25.6°C 74.1°F23.4°C 88% 0.7 mph W1.1 kmh W 4.9 mph7.9 kmh 29.29 in991.9 mb 0.02 in0.5 mm 0.00 in0.0 mm 0.04 in1.0 mm
01:10 PM 78.1°F25.6°C 73.8°F23.2°C 87% 0.4 mph W0.6 kmh W 2.5 mph4.0 kmh 29.28 in991.5 mb 0.02 in0.5 mm 0.00 in0.0 mm 0.04 in1.0 mm
01:15 PM 78.3°F25.7°C 73.6°F23.1°C 85% 0.1 mph NW0.2 kmh NW 2.5 mph4.0 kmh 29.28 in991.5 mb 0.02 in0.5 mm 0.00 in0.0 mm 0.04 in1.0 mm
01:20 PM 78.7°F25.9°C 73.6°F23.1°C 85% 0.1 mph WNW0.2 kmh WNW 2.5 mph4.0 kmh 29.28 in991.5 mb 0.02 in0.5 mm 0.00 in0.0 mm 0.04 in1.0 mm
01:25 PM 79.0°F26.1°C 73.3°F22.9°C 83% 3.2 mph SE5.1 kmh SE 7.4 mph11.9 kmh 29.29 in991.9 mb 0.02 in0.5 mm 0.00 in0.0 mm 0.04 in1.0 mm
01:30 PM 79.3°F26.3°C 72.4°F22.4°C 80% 6.9 mph SSE11.1 kmh SSE 9.8 mph15.8 kmh 29.29 in991.9 mb 0.00 in0.0 mm 0.00 in0.0 mm 0.04 in1.0 mm
01:35 PM 79.7°F26.5°C 71.3°F21.8°C 76% 7.0 mph SE11.3 kmh SE 9.8 mph15.8 kmh 29.28 in991.5 mb 0.00 in0.0 mm 0.00 in0.0 mm 0.04 in1.0 mm
01:40 PM 80.0°F26.7°C 70.9°F21.6°C 74% 5.4 mph ESE8.7 kmh ESE 9.8 mph15.8 kmh 29.28 in991.5 mb 0.00 in0.0 mm 0.00 in0.0 mm 0.04 in1.0 mm
01:45 PM 80.3°F26.8°C 71.2°F21.8°C 74% 6.7 mph ESE10.8 kmh ESE 12.3 mph19.8 kmh 29.28 in991.5 mb 0.00 in0.0 mm 0.00 in0.0 mm 0.04 in1.0 mm
01:50 PM 80.5°F26.9°C 72.3°F22.4°C 76% 7.6 mph SSE12.2 kmh SSE 17.4 mph28.0 kmh 29.28 in991.5 mb 0.00 in0.0 mm 0.00 in0.0 mm 0.04 in1.0 mm
01:55 PM 80.6°F27.0°C 72.7°F22.6°C 77% 8.9 mph S14.3 kmh S 17.4 mph28.0 kmh 29.29 in991.9 mb 0.00 in0.0 mm 0.00 in0.0 mm 0.04 in1.0 mm
02:00 PM 80.5°F26.9°C 72.6°F22.6°C 77% 7.8 mph SE12.6 kmh SE 12.3 mph19.8 kmh 29.29 in991.9 mb 0.00 in0.0 mm 0.00 in0.0 mm 0.04 in1.0 mm
02:05 PM 80.2°F26.8°C 72.4°F22.4°C 77% 4.5 mph SE7.2 kmh SE 9.8 mph15.8 kmh 29.29 in991.9 mb 0.00 in0.0 mm 0.00 in0.0 mm 0.04 in1.0 mm
02:10 PM 79.9°F26.6°C 72.0°F22.2°C 77% 2.4 mph S3.9 kmh S 9.8 mph15.8 kmh 29.29 in991.9 mb 0.00 in0.0 mm 0.00 in0.0 mm 0.04 in1.0 mm
02:15 PM 79.6°F26.4°C 71.3°F21.8°C 76% 3.9 mph SE6.3 kmh SE 7.4 mph11.9 kmh 29.29 in991.9 mb 0.00 in0.0 mm 0.00 in0.0 mm 0.04 in1.0 mm
02:20 PM 79.3°F26.3°C 71.1°F21.7°C 76% 3.3 mph SSE5.3 kmh SSE 4.9 mph7.9 kmh 29.28 in991.5 mb 0.00 in0.0 mm 0.00 in0.0 mm 0.04 in1.0 mm
02:25 PM 79.2°F26.2°C 71.0°F21.7°C 76% 4.9 mph SSE7.9 kmh SSE 7.4 mph11.9 kmh 29.28 in991.5 mb 0.00 in0.0 mm 0.00 in0.0 mm 0.04 in1.0 mm
02:30 PM 79.3°F26.3°C 71.0°F21.7°C 76% 3.7 mph S6.0 kmh S 7.4 mph11.9 kmh 29.28 in991.5 mb 0.00 in0.0 mm 0.00 in0.0 mm 0.04 in1.0 mm
02:35 PM 79.3°F26.3°C 71.0°F21.7°C 76% 7.7 mph SSE12.4 kmh SSE 9.8 mph15.8 kmh 29.28 in991.5 mb 0.00 in0.0 mm 0.00 in0.0 mm 0.04 in1.0 mm
02:40 PM 79.5°F26.4°C 70.7°F21.5°C 75% 4.3 mph SE6.9 kmh SE 9.8 mph15.8 kmh 29.28 in991.5 mb 0.00 in0.0 mm 0.00 in0.0 mm 0.04 in1.0 mm
02:45 PM 79.8°F26.6°C 70.4°F21.3°C 73% 1.3 mph S2.1 kmh S 2.5 mph4.0 kmh 29.28 in991.5 mb 0.00 in0.0 mm 0.00 in0.0 mm 0.04 in1.0 mm
02:50 PM 80.2°F26.8°C 70.0°F21.1°C 71% 4.1 mph SSE6.6 kmh SSE 15.0 mph24.1 kmh 29.27 in991.2 mb 0.00 in0.0 mm 0.00 in0.0 mm 0.04 in1.0 mm
02:55 PM 80.8°F27.1°C 69.1°F20.6°C 68% 0.7 mph SW1.1 kmh SW 2.5 mph4.0 kmh 29.27 in991.2 mb 0.00 in0.0 mm 0.00 in0.0 mm 0.04 in1.0 mm
03:00 PM 81.3°F27.4°C 69.0°F20.6°C 66% 0.8 mph SW1.3 kmh SW 2.5 mph4.0 kmh 29.27 in991.2 mb 0.00 in0.0 mm 0.00 in0.0 mm 0.04 in1.0 mm
03:05 PM 82.2°F27.9°C 68.3°F20.2°C 63% 1.0 mph WSW1.6 kmh WSW 4.9 mph7.9 kmh 29.27 in991.2 mb 0.00 in0.0 mm 0.00 in0.0 mm 0.04 in1.0 mm
03:10 PM 82.8°F28.2°C 69.2°F20.7°C 64% 1.3 mph SW2.1 kmh SW 7.4 mph11.9 kmh 29.27 in991.2 mb 0.00 in0.0 mm 0.00 in0.0 mm 0.04 in1.0 mm
03:15 PM 83.5°F28.6°C 68.6°F20.3°C 61% 0.1 mph SSW0.2 kmh SSW 2.5 mph4.0 kmh 29.26 in990.9 mb 0.00 in0.0 mm 0.00 in0.0 mm 0.04 in1.0 mm
03:20 PM 84.5°F29.2°C 66.5°F19.2°C 55% 1.2 mph SW1.9 kmh SW 4.9 mph7.9 kmh 29.26 in990.9 mb 0.00 in0.0 mm 0.00 in0.0 mm 0.04 in1.0 mm
03:25 PM 85.4°F29.7°C 66.4°F19.1°C 53% 1.9 mph SE3.1 kmh SE 4.9 mph7.9 kmh 29.27 in991.2 mb 0.00 in0.0 mm 0.00 in0.0 mm 0.04 in1.0 mm
03:30 PM 85.7°F29.8°C 68.5°F20.3°C 57% 1.3 mph WSW2.1 kmh WSW 2.5 mph4.0 kmh 29.27 in991.2 mb 0.00 in0.0 mm 0.00 in0.0 mm 0.04 in1.0 mm
03:35 PM 85.8°F29.9°C 68.4°F20.2°C 56% 2.6 mph SSE4.2 kmh SSE 9.8 mph15.8 kmh 29.26 in990.9 mb 0.00 in0.0 mm 0.00 in0.0 mm 0.04 in1.0 mm
03:40 PM 86.2°F30.1°C 69.0°F20.6°C 57% 0.1 mph WSW0.2 kmh WSW 2.5 mph4.0 kmh 29.26 in990.9 mb 0.00 in0.0 mm 0.00 in0.0 mm 0.04 in1.0 mm
03:45 PM 86.4°F30.2°C 69.7°F20.9°C 58% 1.3 mph SSE2.1 kmh SSE 4.9 mph7.9 kmh 29.26 in990.9 mb 0.00 in0.0 mm 0.00 in0.0 mm 0.04 in1.0 mm
03:50 PM 86.1°F30.1°C 69.1°F20.6°C 57% 0.9 mph ESE1.4 kmh ESE 4.9 mph7.9 kmh 29.25 in990.5 mb 0.00 in0.0 mm 0.00 in0.0 mm 0.04 in1.0 mm
03:55 PM 85.8°F29.9°C 69.1°F20.6°C 58% 0.8 mph S1.3 kmh S 4.9 mph7.9 kmh 29.25 in990.5 mb 0.00 in0.0 mm 0.00 in0.0 mm 0.04 in1.0 mm
04:00 PM 85.9°F29.9°C 69.2°F20.7°C 58% 2.6 mph NE4.2 kmh NE 4.9 mph7.9 kmh 29.25 in990.5 mb 0.00 in0.0 mm 0.00 in0.0 mm 0.04 in1.0 mm
04:05 PM 86.0°F30.0°C 70.2°F21.2°C 60% 2.0 mph NE3.2 kmh NE 4.9 mph7.9 kmh 29.25 in990.5 mb 0.00 in0.0 mm 0.00 in0.0 mm 0.04 in1.0 mm
04:10 PM 86.2°F30.1°C 70.5°F21.4°C 60% 1.0 mph NNW1.6 kmh NNW 2.5 mph4.0 kmh 29.25 in990.5 mb 0.00 in0.0 mm 0.00 in0.0 mm 0.04 in1.0 mm
04:15 PM 86.2°F30.1°C 70.7°F21.5°C 60% 1.0 mph NW1.6 kmh NW 2.5 mph4.0 kmh 29.24 in990.2 mb 0.00 in0.0 mm 0.00 in0.0 mm 0.04 in1.0 mm
04:20 PM 86.0°F30.0°C 70.3°F21.3°C 60% 0.8 mph NNW1.3 kmh NNW 7.4 mph11.9 kmh 29.24 in990.2 mb 0.00 in0.0 mm 0.00 in0.0 mm 0.04 in1.0 mm
04:25 PM 86.2°F30.1°C 70.3°F21.3°C 59% 1.2 mph SW1.9 kmh SW 2.5 mph4.0 kmh 29.24 in990.2 mb 0.00 in0.0 mm 0.00 in0.0 mm 0.04 in1.0 mm
04:30 PM 86.2°F30.1°C 69.5°F20.8°C 58% Calm Calm -- 29.24 in990.2 mb 0.00 in0.0 mm 0.00 in0.0 mm 0.04 in1.0 mm
04:35 PM 86.2°F30.1°C 66.8°F19.3°C 52% 1.8 mph SSW2.9 kmh SSW 4.9 mph7.9 kmh 29.23 in989.8 mb 0.00 in0.0 mm 0.00 in0.0 mm 0.04 in1.0 mm
04:40 PM 86.5°F30.3°C 65.8°F18.8°C 50% 1.5 mph S2.4 kmh S 2.5 mph4.0 kmh 29.24 in990.2 mb 0.00 in0.0 mm 0.00 in0.0 mm 0.04 in1.0 mm
04:45 PM 86.6°F30.3°C 67.4°F19.7°C 53% 2.5 mph SSE4.0 kmh SSE 4.9 mph7.9 kmh 29.23 in989.8 mb 0.00 in0.0 mm 0.00 in0.0 mm 0.04 in1.0 mm
04:50 PM 86.6°F30.3°C 68.1°F20.1°C 54% 2.5 mph SE4.0 kmh SE 4.9 mph7.9 kmh 29.24 in990.2 mb 0.00 in0.0 mm 0.00 in0.0 mm 0.04 in1.0 mm
04:55 PM 86.6°F30.3°C 68.7°F20.4°C 55% 0.9 mph SSE1.4 kmh SSE 4.9 mph7.9 kmh 29.23 in989.8 mb 0.00 in0.0 mm 0.00 in0.0 mm 0.04 in1.0 mm
05:00 PM 86.5°F30.3°C 68.0°F20.0°C 54% 5.1 mph SE8.2 kmh SE 9.8 mph15.8 kmh 29.23 in989.8 mb 0.00 in0.0 mm 0.00 in0.0 mm 0.04 in1.0 mm
05:05 PM 86.2°F30.1°C 69.2°F20.7°C 57% 4.8 mph SSE7.7 kmh SSE 7.4 mph11.9 kmh 29.23 in989.8 mb 0.00 in0.0 mm 0.00 in0.0 mm 0.04 in1.0 mm
05:10 PM 85.6°F29.8°C 70.8°F21.6°C 61% 2.7 mph SE4.3 kmh SE 7.4 mph11.9 kmh 29.23 in989.8 mb 0.00 in0.0 mm 0.00 in0.0 mm 0.04 in1.0 mm
05:15 PM 85.2°F29.6°C 70.0°F21.1°C 61% 5.1 mph E8.2 kmh E 7.4 mph11.9 kmh 29.23 in989.8 mb 0.00 in0.0 mm 0.00 in0.0 mm 0.04 in1.0 mm
05:20 PM 84.5°F29.2°C 70.3°F21.3°C 62% 4.8 mph SE7.7 kmh SE 9.8 mph15.8 kmh 29.23 in989.8 mb 0.00 in0.0 mm 0.00 in0.0 mm 0.04 in1.0 mm
05:25 PM 83.9°F28.8°C 70.7°F21.5°C 65% 5.6 mph E9.0 kmh E 9.8 mph15.8 kmh 29.23 in989.8 mb 0.00 in0.0 mm 0.00 in0.0 mm 0.04 in1.0 mm
05:30 PM 83.5°F28.6°C 70.9°F21.6°C 66% 4.7 mph E7.6 kmh E 12.3 mph19.8 kmh 29.23 in989.8 mb 0.00 in0.0 mm 0.00 in0.0 mm 0.04 in1.0 mm
05:35 PM 82.9°F28.3°C 70.9°F21.6°C 67% 5.1 mph SE8.2 kmh SE 9.8 mph15.8 kmh 29.23 in989.8 mb 0.00 in0.0 mm 0.00 in0.0 mm 0.04 in1.0 mm
05:40 PM 82.7°F28.2°C 71.1°F21.7°C 68% 3.6 mph ESE5.8 kmh ESE 7.4 mph11.9 kmh 29.23 in989.8 mb 0.00 in0.0 mm 0.00 in0.0 mm 0.04 in1.0 mm
05:45 PM 82.4°F28.0°C 71.0°F21.7°C 69% 3.4 mph ESE5.5 kmh ESE 4.9 mph7.9 kmh 29.23 in989.8 mb 0.00 in0.0 mm 0.00 in0.0 mm 0.04 in1.0 mm
05:50 PM 82.4°F28.0°C 70.6°F21.4°C 68% 5.8 mph SE9.3 kmh SE 9.8 mph15.8 kmh 29.23 in989.8 mb 0.00 in0.0 mm 0.00 in0.0 mm 0.04 in1.0 mm
05:55 PM 82.2°F27.9°C 70.3°F21.3°C 67% 4.2 mph SSE6.8 kmh SSE 7.4 mph11.9 kmh 29.23 in989.8 mb 0.00 in0.0 mm 0.00 in0.0 mm 0.04 in1.0 mm
06:00 PM 82.3°F27.9°C 70.3°F21.3°C 67% 3.7 mph E6.0 kmh E 9.8 mph15.8 kmh 29.23 in989.8 mb 0.00 in0.0 mm 0.00 in0.0 mm 0.04 in1.0 mm
06:05 PM 82.4°F28.0°C 70.3°F21.3°C 67% 2.1 mph SSE3.4 kmh SSE 7.4 mph11.9 kmh 29.23 in989.8 mb 0.00 in0.0 mm 0.00 in0.0 mm 0.04 in1.0 mm
06:10 PM 82.4°F28.0°C 70.5°F21.4°C 67% 3.4 mph SE5.5 kmh SE 7.4 mph11.9 kmh 29.23 in989.8 mb 0.00 in0.0 mm 0.00 in0.0 mm 0.04 in1.0 mm
06:15 PM 82.6°F28.1°C 70.5°F21.4°C 67% 2.2 mph ESE3.5 kmh ESE 4.9 mph7.9 kmh 29.23 in989.8 mb 0.00 in0.0 mm 0.00 in0.0 mm 0.04 in1.0 mm
06:20 PM 82.8°F28.2°C 70.9°F21.6°C 68% 3.1 mph SSE5.0 kmh SSE 7.4 mph11.9 kmh 29.22 in989.5 mb 0.00 in0.0 mm 0.00 in0.0 mm 0.04 in1.0 mm
06:25 PM 82.9°F28.3°C 71.2°F21.8°C 68% 3.8 mph SE6.1 kmh SE 7.4 mph11.9 kmh 29.23 in989.8 mb 0.00 in0.0 mm 0.00 in0.0 mm 0.04 in1.0 mm
06:30 PM 82.9°F28.3°C 71.2°F21.8°C 68% 1.1 mph ESE1.8 kmh ESE 2.5 mph4.0 kmh 29.22 in989.5 mb 0.00 in0.0 mm 0.00 in0.0 mm 0.04 in1.0 mm
06:35 PM 83.1°F28.4°C 71.4°F21.9°C 68% 1.6 mph SE2.6 kmh SE 4.9 mph7.9 kmh 29.22 in989.5 mb 0.00 in0.0 mm 0.00 in0.0 mm 0.04 in1.0 mm
06:40 PM 83.2°F28.4°C 71.5°F21.9°C 68% 3.2 mph E5.1 kmh E 4.9 mph7.9 kmh 29.22 in989.5 mb 0.00 in0.0 mm 0.00 in0.0 mm 0.04 in1.0 mm
06:45 PM 83.3°F28.5°C 71.6°F22.0°C 68% 3.8 mph ESE6.1 kmh ESE 9.8 mph15.8 kmh 29.22 in989.5 mb 0.00 in0.0 mm 0.00 in0.0 mm 0.04 in1.0 mm
06:50 PM 83.3°F28.5°C 71.6°F22.0°C 68% 4.2 mph SE6.8 kmh SE 9.8 mph15.8 kmh 29.21 in989.2 mb 0.00 in0.0 mm 0.00 in0.0 mm 0.04 in1.0 mm
06:55 PM 83.3°F28.5°C 71.6°F22.0°C 68% 3.3 mph SSE5.3 kmh SSE 4.9 mph7.9 kmh 29.23 in989.8 mb 0.00 in0.0 mm 0.00 in0.0 mm 0.04 in1.0 mm
07:00 PM 83.5°F28.6°C 71.8°F22.1°C 68% 2.0 mph ENE3.2 kmh ENE 7.4 mph11.9 kmh 29.22 in989.5 mb 0.00 in0.0 mm 0.00 in0.0 mm 0.04 in1.0 mm
07:05 PM 83.5°F28.6°C 71.8°F22.1°C 68% 2.5 mph SE4.0 kmh SE 9.8 mph15.8 kmh 29.22 in989.5 mb 0.00 in0.0 mm 0.00 in0.0 mm 0.04 in1.0 mm
07:10 PM 83.3°F28.5°C 71.6°F22.0°C 68% 4.8 mph SE7.7 kmh SE 7.4 mph11.9 kmh 29.23 in989.8 mb 0.00 in0.0 mm 0.00 in0.0 mm 0.04 in1.0 mm
07:15 PM 83.3°F28.5°C 71.2°F21.8°C 67% 3.1 mph SE5.0 kmh SE 4.9 mph7.9 kmh 29.23 in989.8 mb 0.00 in0.0 mm 0.00 in0.0 mm 0.04 in1.0 mm
07:20 PM 83.3°F28.5°C 71.2°F21.8°C 67% 2.8 mph E4.5 kmh E 7.4 mph11.9 kmh 29.23 in989.8 mb 0.00 in0.0 mm 0.00 in0.0 mm 0.04 in1.0 mm
07:25 PM 83.3°F28.5°C 71.2°F21.8°C 67% 5.2 mph SE8.4 kmh SE 7.4 mph11.9 kmh 29.23 in989.8 mb 0.00 in0.0 mm 0.00 in0.0 mm 0.04 in1.0 mm
07:30 PM 83.3°F28.5°C 71.2°F21.8°C 67% 1.1 mph SE1.8 kmh SE 2.5 mph4.0 kmh 29.22 in989.5 mb 0.00 in0.0 mm 0.00 in0.0 mm 0.04 in1.0 mm
07:35 PM 83.3°F28.5°C 71.2°F21.8°C 67% 4.5 mph SSE7.2 kmh SSE 7.4 mph11.9 kmh 29.23 in989.8 mb 0.00 in0.0 mm 0.00 in0.0 mm 0.04 in1.0 mm
07:40 PM 83.3°F28.5°C 71.3°F21.8°C 67% 3.6 mph SSE5.8 kmh SSE 7.4 mph11.9 kmh 29.23 in989.8 mb 0.00 in0.0 mm 0.00 in0.0 mm 0.04 in1.0 mm
07:45 PM 83.3°F28.5°C 71.2°F21.8°C 67% 2.7 mph ESE4.3 kmh ESE 7.4 mph11.9 kmh 29.23 in989.8 mb 0.00 in0.0 mm 0.00 in0.0 mm 0.04 in1.0 mm
07:50 PM 83.1°F28.4°C 71.5°F21.9°C 68% 1.7 mph ESE2.7 kmh ESE 4.9 mph7.9 kmh 29.23 in989.8 mb 0.00 in0.0 mm 0.00 in0.0 mm 0.04 in1.0 mm
07:55 PM 83.1°F28.4°C 71.4°F21.9°C 68% 1.9 mph S3.1 kmh S 2.5 mph4.0 kmh 29.23 in989.8 mb 0.00 in0.0 mm 0.00 in0.0 mm 0.04 in1.0 mm
08:00 PM 83.0°F28.3°C 70.9°F21.6°C 67% 2.1 mph ESE3.4 kmh ESE 4.9 mph7.9 kmh 29.23 in989.8 mb 0.00 in0.0 mm 0.00 in0.0 mm 0.04 in1.0 mm
08:05 PM 82.9°F28.3°C 70.8°F21.6°C 67% 1.4 mph SE2.3 kmh SE 4.9 mph7.9 kmh 29.24 in990.2 mb 0.00 in0.0 mm 0.00 in0.0 mm 0.04 in1.0 mm
08:10 PM 82.9°F28.3°C 70.9°F21.6°C 67% 1.1 mph ESE1.8 kmh ESE 2.5 mph4.0 kmh 29.24 in990.2 mb 0.00 in0.0 mm 0.00 in0.0 mm 0.04 in1.0 mm
08:15 PM 82.8°F28.2°C 71.1°F21.7°C 68% 1.3 mph SSE2.1 kmh SSE 4.9 mph7.9 kmh 29.25 in990.5 mb 0.00 in0.0 mm 0.00 in0.0 mm 0.04 in1.0 mm
08:20 PM 82.8°F28.2°C 71.1°F21.7°C 68% 2.5 mph SE4.0 kmh SE 4.9 mph7.9 kmh 29.25 in990.5 mb 0.00 in0.0 mm 0.00 in0.0 mm 0.04 in1.0 mm
08:25 PM 82.6°F28.1°C 71.4°F21.9°C 69% 1.0 mph SE1.6 kmh SE 2.5 mph4.0 kmh 29.25 in990.5 mb 0.00 in0.0 mm 0.00 in0.0 mm 0.04 in1.0 mm
08:30 PM 82.4°F28.0°C 71.2°F21.8°C 69% 3.2 mph SE5.1 kmh SE 7.4 mph11.9 kmh 29.25 in990.5 mb 0.00 in0.0 mm 0.00 in0.0 mm 0.04 in1.0 mm
08:35 PM 82.4°F28.0°C 71.5°F21.9°C 70% 2.6 mph SE4.2 kmh SE 4.9 mph7.9 kmh 29.25 in990.5 mb 0.00 in0.0 mm 0.00 in0.0 mm 0.04 in1.0 mm
08:40 PM 82.2°F27.9°C 71.4°F21.9°C 70% 4.3 mph SSE6.9 kmh SSE 7.4 mph11.9 kmh 29.25 in990.5 mb 0.00 in0.0 mm 0.00 in0.0 mm 0.04 in1.0 mm
08:45 PM 82.0°F27.8°C 71.6°F22.0°C 71% 2.1 mph SSE3.4 kmh SSE 4.9 mph7.9 kmh 29.25 in990.5 mb 0.00 in0.0 mm 0.00 in0.0 mm 0.04 in1.0 mm
08:50 PM 81.9°F27.7°C 72.0°F22.2°C 72% 2.1 mph SSE3.4 kmh SSE 7.4 mph11.9 kmh 29.25 in990.5 mb 0.00 in0.0 mm 0.00 in0.0 mm 0.04 in1.0 mm
08:55 PM 81.8°F27.7°C 72.0°F22.2°C 72% 1.6 mph SSE2.6 kmh SSE 4.9 mph7.9 kmh 29.26 in990.9 mb 0.00 in0.0 mm 0.00 in0.0 mm 0.04 in1.0 mm
09:00 PM 81.7°F27.6°C 72.2°F22.3°C 73% 1.8 mph SE2.9 kmh SE 4.9 mph7.9 kmh 29.26 in990.9 mb 0.00 in0.0 mm 0.00 in0.0 mm 0.04 in1.0 mm
09:05 PM 81.5°F27.5°C 72.3°F22.4°C 74% 2.1 mph SE3.4 kmh SE 7.4 mph11.9 kmh 29.26 in990.9 mb 0.00 in0.0 mm 0.00 in0.0 mm 0.04 in1.0 mm
09:10 PM 81.3°F27.4°C 72.2°F22.3°C 74% 2.6 mph SE4.2 kmh SE 4.9 mph7.9 kmh 29.26 in990.9 mb 0.00 in0.0 mm 0.00 in0.0 mm 0.04 in1.0 mm
09:15 PM 81.3°F27.4°C 72.5°F22.5°C 75% 3.7 mph SSE6.0 kmh SSE 7.4 mph11.9 kmh 29.26 in990.9 mb 0.00 in0.0 mm 0.00 in0.0 mm 0.04 in1.0 mm
09:20 PM 81.1°F27.3°C 72.4°F22.4°C 75% 3.4 mph SSE5.5 kmh SSE 4.9 mph7.9 kmh 29.26 in990.9 mb 0.00 in0.0 mm 0.00 in0.0 mm 0.04 in1.0 mm
09:25 PM 81.0°F27.2°C 72.3°F22.4°C 75% 1.6 mph SE2.6 kmh SE 4.9 mph7.9 kmh 29.26 in990.9 mb 0.00 in0.0 mm 0.00 in0.0 mm 0.04 in1.0 mm
09:30 PM 81.0°F27.2°C 72.7°F22.6°C 76% 1.1 mph SE1.8 kmh SE 2.5 mph4.0 kmh 29.26 in990.9 mb 0.00 in0.0 mm 0.00 in0.0 mm 0.04 in1.0 mm
09:35 PM 80.8°F27.1°C 72.9°F22.7°C 77% 1.0 mph SE1.6 kmh SE 2.5 mph4.0 kmh 29.26 in990.9 mb 0.00 in0.0 mm 0.00 in0.0 mm 0.04 in1.0 mm
09:40 PM 80.7°F27.1°C 72.9°F22.7°C 77% 1.5 mph ESE2.4 kmh ESE 2.5 mph4.0 kmh 29.27 in991.2 mb 0.00 in0.0 mm 0.00 in0.0 mm 0.04 in1.0 mm
09:45 PM 80.6°F27.0°C 73.1°F22.8°C 78% 2.4 mph E3.9 kmh E 4.9 mph7.9 kmh 29.27 in991.2 mb 0.00 in0.0 mm 0.00 in0.0 mm 0.04 in1.0 mm
09:50 PM 80.4°F26.9°C 73.2°F22.9°C 79% 4.4 mph SE7.1 kmh SE 7.4 mph11.9 kmh 29.27 in991.2 mb 0.00 in0.0 mm 0.00 in0.0 mm 0.04 in1.0 mm
09:55 PM 80.3°F26.8°C 73.1°F22.8°C 79% 2.6 mph SSE4.2 kmh SSE 4.9 mph7.9 kmh 29.27 in991.2 mb 0.00 in0.0 mm 0.00 in0.0 mm 0.04 in1.0 mm
10:00 PM 80.2°F26.8°C 73.0°F22.8°C 79% 2.4 mph SE3.9 kmh SE 7.4 mph11.9 kmh 29.27 in991.2 mb 0.00 in0.0 mm 0.00 in0.0 mm 0.04 in1.0 mm
10:05 PM 80.0°F26.7°C 72.9°F22.7°C 79% 2.2 mph SE3.5 kmh SE 4.9 mph7.9 kmh 29.27 in991.2 mb 0.00 in0.0 mm 0.00 in0.0 mm 0.04 in1.0 mm
10:10 PM 79.9°F26.6°C 72.8°F22.7°C 79% 4.1 mph SE6.6 kmh SE 4.9 mph7.9 kmh 29.27 in991.2 mb 0.00 in0.0 mm 0.00 in0.0 mm 0.04 in1.0 mm
10:15 PM 79.7°F26.5°C 72.7°F22.6°C 79% 3.6 mph SE5.8 kmh SE 7.4 mph11.9 kmh 29.27 in991.2 mb 0.00 in0.0 mm 0.00 in0.0 mm 0.04 in1.0 mm
10:20 PM 79.5°F26.4°C 72.8°F22.7°C 80% 3.8 mph SE6.1 kmh SE 9.8 mph15.8 kmh 29.27 in991.2 mb 0.00 in0.0 mm 0.00 in0.0 mm 0.04 in1.0 mm
10:25 PM 79.5°F26.4°C 72.8°F22.7°C 80% 4.7 mph SSE7.6 kmh SSE 7.4 mph11.9 kmh 29.28 in991.5 mb 0.00 in0.0 mm 0.00 in0.0 mm 0.04 in1.0 mm
10:30 PM 79.5°F26.4°C 72.9°F22.7°C 80% 4.3 mph ESE6.9 kmh ESE 7.4 mph11.9 kmh 29.27 in991.2 mb 0.00 in0.0 mm 0.00 in0.0 mm 0.04 in1.0 mm
10:35 PM 79.3°F26.3°C 72.9°F22.7°C 81% 2.1 mph SE3.4 kmh SE 4.9 mph7.9 kmh 29.28 in991.5 mb 0.00 in0.0 mm 0.00 in0.0 mm 0.04 in1.0 mm
10:40 PM 79.3°F26.3°C 73.1°F22.8°C 81% 2.8 mph SE4.5 kmh SE 4.9 mph7.9 kmh 29.28 in991.5 mb 0.00 in0.0 mm 0.00 in0.0 mm 0.04 in1.0 mm
10:45 PM 79.2°F26.2°C 73.2°F22.9°C 82% 4.2 mph SE6.8 kmh SE 4.9 mph7.9 kmh 29.28 in991.5 mb 0.00 in0.0 mm 0.00 in0.0 mm 0.04 in1.0 mm
10:50 PM 79.2°F26.2°C 73.3°F22.9°C 82% 4.0 mph E6.4 kmh E 7.4 mph11.9 kmh 29.29 in991.9 mb 0.00 in0.0 mm 0.00 in0.0 mm 0.04 in1.0 mm
10:55 PM 79.0°F26.1°C 73.7°F23.2°C 84% 4.2 mph E6.8 kmh E 7.4 mph11.9 kmh 29.28 in991.5 mb 0.00 in0.0 mm 0.00 in0.0 mm 0.04 in1.0 mm
11:00 PM 78.9°F26.1°C 73.7°F23.2°C 84% 3.9 mph SE6.3 kmh SE 7.4 mph11.9 kmh 29.28 in991.5 mb 0.00 in0.0 mm 0.00 in0.0 mm 0.04 in1.0 mm
11:05 PM 78.8°F26.0°C 73.9°F23.3°C 85% 4.3 mph SE6.9 kmh SE 9.8 mph15.8 kmh 29.29 in991.9 mb 0.00 in0.0 mm 0.00 in0.0 mm 0.04 in1.0 mm
11:10 PM 78.7°F25.9°C 73.8°F23.2°C 85% 2.1 mph SE3.4 kmh SE 2.5 mph4.0 kmh 29.29 in991.9 mb 0.00 in0.0 mm 0.00 in0.0 mm 0.04 in1.0 mm
11:15 PM 78.5°F25.8°C 73.6°F23.1°C 85% 5.8 mph E9.3 kmh E 9.8 mph15.8 kmh 29.29 in991.9 mb 0.00 in0.0 mm 0.00 in0.0 mm 0.04 in1.0 mm
11:20 PM 78.2°F25.7°C 73.4°F23.0°C 85% 2.5 mph SE4.0 kmh SE 4.9 mph7.9 kmh 29.29 in991.9 mb 0.00 in0.0 mm 0.00 in0.0 mm 0.04 in1.0 mm
11:25 PM 77.9°F25.5°C 73.4°F23.0°C 86% 1.7 mph SSE2.7 kmh SSE 4.9 mph7.9 kmh 29.30 in992.2 mb 0.00 in0.0 mm 0.00 in0.0 mm 0.04 in1.0 mm
11:30 PM 77.7°F25.4°C 73.3°F22.9°C 86% 1.9 mph ESE3.1 kmh ESE 4.9 mph7.9 kmh 29.30 in992.2 mb 0.00 in0.0 mm 0.00 in0.0 mm 0.04 in1.0 mm
11:35 PM 77.5°F25.3°C 73.3°F22.9°C 87% 1.5 mph SSE2.4 kmh SSE 4.9 mph7.9 kmh 29.30 in992.2 mb 0.00 in0.0 mm 0.00 in0.0 mm 0.04 in1.0 mm
11:40 PM 77.2°F25.1°C 73.1°F22.8°C 87% 1.7 mph S2.7 kmh S 7.4 mph11.9 kmh 29.30 in992.2 mb 0.00 in0.0 mm 0.00 in0.0 mm 0.04 in1.0 mm
11:45 PM 77.2°F25.1°C 73.4°F23.0°C 88% 4.2 mph SSE6.8 kmh SSE 7.4 mph11.9 kmh 29.30 in992.2 mb 0.00 in0.0 mm 0.00 in0.0 mm 0.04 in1.0 mm
11:50 PM 77.2°F25.1°C 73.7°F23.2°C 89% 3.5 mph SE5.6 kmh SE 12.3 mph19.8 kmh 29.29 in991.9 mb 0.00 in0.0 mm 0.00 in0.0 mm 0.04 in1.0 mm
11:55 PM 77.2°F25.1°C 73.7°F23.2°C 89% 4.7 mph SSE7.6 kmh SSE 7.4 mph11.9 kmh 29.29 in991.9 mb 0.00 in0.0 mm 0.00 in0.0 mm 0.04 in1.0 mm